Aérodrome :
LOGIN :

S'inscrire | Disclaimer

   EN    FR    IT 

 










Légende :    VFR   VFR Marginal   IFR   IFR Intensif   IFR Très Intensif
Visi : 
Plafond : 
>= 8 km
>= 3000ft
5 à 8 km
1000 à 3000 ft
1500m à 5 km
500 à 1000 ft
800 à 1500m
200 à 500 ft
< 800m
< 200 ft
Symboles :   Orages  Brouillard  Fortes neiges  Fortes précipitations  Vent > 20 kt
SIGMETs :   Divers  Orages  Givrage  Turbulence  Onde Orograph.  Cendres Volcan.







- Altitude de l'aérodrome : 446 ft
- Code IATA : VNE
- Voir les cartes d'approche


LFRV - Vannes-Meucon

DERNIER METAR :
  • 191030Z AUTO VRB02KT 9999 BKN016 10/07 Q1022

METARs EXPIRÉS :
  • 191000Z AUTO 00000KT 9999 FEW013 10/09 Q1022
  • 190930Z AUTO VRB02KT CAVOK 08/07 Q1022
  • 190900Z AUTO VRB02KT CAVOK 07/07 Q1022
  • 190830Z AUTO 08003KT 0900 FG NSC 03/03 Q1022
  • 190800Z AUTO 01001KT 0800 FG FEW005 02/02 Q1022

TAF N/A
Pas de NOTAMs connus pour ce terrain.
1 SIGMET publié pour la FIR Brest (LFRR) :
 
Turbulence forte
LFRR SIGMET 3 VALID 190800/191200 LFPW
LFRR BREST FIR/UIR SEV TURB FCST SE OF LINE N4800 W00015 - N4415 W00430 FL200/300 STNR NC=



MET'MAP, la Météo Aéronautique d'un coup d'oeil ! - Copyright ORBIFLY Décembre 2007 - Disclaimer

ORBIFLY MET'MAP TEAM :

Programmation & Développement : Alexandra Zaïnal
Conception & Développement : Baudouin d'Aumeries
Co-Programmation & Développement : Marc-Olivier Méhu
Soutien technique & logistique : Manuel Goepfert

Contact : metmap@orbifly.com




SOURCES & CREDITS :

   NOAA